createdAt,value
2019-01-15T00:00:40.484Z,3.81
2019-01-15T00:01:40.489Z,3.78
2019-01-15T00:02:40.459Z,3.74
2019-01-15T00:03:40.447Z,3.80
2019-01-15T00:04:40.449Z,3.72
2019-01-15T00:05:40.425Z,3.74
2019-01-15T00:06:40.432Z,3.74
2019-01-15T00:07:40.406Z,3.74
2019-01-15T00:08:40.394Z,3.72
2019-01-15T00:09:40.381Z,3.80
2019-01-15T00:10:40.369Z,3.72
2019-01-15T00:11:40.377Z,3.72
2019-01-15T00:12:40.347Z,3.69
2019-01-15T00:13:40.336Z,3.69
2019-01-15T00:14:40.327Z,3.67
2019-01-15T00:15:40.314Z,3.76
2019-01-15T00:16:40.320Z,3.64
2019-01-15T00:17:40.291Z,3.76
2019-01-15T00:18:40.283Z,3.67
2019-01-15T00:19:40.278Z,3.60
2019-01-15T00:20:40.264Z,3.63
2019-01-15T00:21:40.281Z,3.62
2019-01-15T00:22:40.238Z,3.59
2019-01-15T00:23:40.225Z,3.51
2019-01-15T00:24:40.215Z,3.46
2019-01-15T00:25:40.204Z,3.44
2019-01-15T00:26:40.196Z,3.32
2019-01-15T00:27:40.203Z,3.41
2019-01-15T00:28:40.171Z,3.27
2019-01-15T00:29:40.160Z,3.30
2019-01-15T00:30:40.148Z,3.30
2019-01-15T00:31:40.139Z,3.33
2019-01-15T00:32:40.142Z,3.32
2019-01-15T00:33:40.117Z,3.26
2019-01-15T00:34:40.106Z,3.32
2019-01-15T00:35:40.095Z,3.23
2019-01-15T00:36:41.725Z,3.29
2019-01-15T00:37:40.121Z,3.29
2019-01-15T00:38:40.060Z,3.36
2019-01-15T00:39:40.053Z,3.32
2019-01-15T00:40:40.038Z,3.26
2019-01-15T00:41:40.026Z,3.22
2019-01-15T00:42:40.038Z,3.23
2019-01-15T00:43:40.005Z,3.15
2019-01-15T00:44:39.996Z,3.15
2019-01-15T00:45:39.987Z,3.12
2019-01-15T00:46:39.988Z,3.07
2019-01-15T00:47:39.981Z,3.09
2019-01-15T00:48:39.949Z,3.07
2019-01-15T00:49:39.939Z,3.12
2019-01-15T00:50:39.938Z,3.08
2019-01-15T00:51:39.922Z,3.11
2019-01-15T00:52:39.905Z,3.12
2019-01-15T00:53:39.913Z,3.12
2019-01-15T00:54:39.883Z,3.00
2019-01-15T00:55:39.875Z,3.09
2019-01-15T00:56:39.865Z,3.05
2019-01-15T00:57:39.850Z,3.08
2019-01-15T00:58:39.854Z,3.07
2019-01-15T00:59:39.828Z,3.09
2019-01-15T01:00:39.870Z,3.04
2019-01-15T01:01:39.806Z,3.02
2019-01-15T01:02:39.798Z,2.97
2019-01-15T01:03:39.806Z,3.08
2019-01-15T01:04:39.772Z,3.08
2019-01-15T01:05:39.762Z,3.02
2019-01-15T01:06:39.751Z,3.04
2019-01-15T01:07:39.743Z,3.12
2019-01-15T01:08:39.768Z,3.08
2019-01-15T01:09:39.718Z,3.15
2019-01-15T01:10:39.706Z,3.04
2019-01-15T01:11:39.698Z,3.15
2019-01-15T01:12:39.683Z,3.12
2019-01-15T01:13:39.673Z,3.18
2019-01-15T01:14:39.681Z,3.18
2019-01-15T01:15:39.686Z,3.17
2019-01-15T01:16:39.639Z,3.18
2019-01-15T01:17:39.629Z,3.18
2019-01-15T01:18:39.629Z,3.17
2019-01-15T01:19:39.634Z,3.11
2019-01-15T01:20:39.598Z,3.18
2019-01-15T01:21:39.585Z,3.11
2019-01-15T01:22:39.578Z,3.11
2019-01-15T01:23:39.567Z,3.04
2019-01-15T01:24:39.575Z,3.08
2019-01-15T01:25:39.550Z,3.02
2019-01-15T01:26:39.529Z,3.11
2019-01-15T01:27:39.520Z,3.08
2019-01-15T01:28:39.508Z,3.12
2019-01-15T01:29:39.516Z,3.02
2019-01-15T01:30:39.493Z,3.04
2019-01-15T01:31:39.479Z,3.11
2019-01-15T01:32:39.465Z,3.08
2019-01-15T01:33:39.452Z,3.05
2019-01-15T01:34:39.659Z,3.02
2019-01-15T01:35:39.436Z,3.11
2019-01-15T01:36:39.421Z,3.09
2019-01-15T01:37:39.417Z,3.05
2019-01-15T01:38:39.400Z,2.99
2019-01-15T01:39:39.392Z,2.99
2019-01-15T01:40:39.395Z,3.02
2019-01-15T01:41:39.366Z,3.00
2019-01-15T01:42:39.355Z,2.99
2019-01-15T01:43:39.345Z,3.04
2019-01-15T01:44:39.334Z,3.04
2019-01-15T01:45:39.340Z,2.97
2019-01-15T01:46:39.310Z,2.91
2019-01-15T01:47:39.298Z,2.90
2019-01-15T01:48:39.290Z,2.89
2019-01-15T01:49:39.277Z,2.89
2019-01-15T01:50:39.572Z,2.93
2019-01-15T01:51:39.255Z,2.91
2019-01-15T01:52:39.243Z,2.90
2019-01-15T01:53:39.231Z,2.89
2019-01-15T01:54:39.224Z,2.93
2019-01-15T01:55:39.210Z,2.87
2019-01-15T01:56:39.218Z,2.81
2019-01-15T01:57:39.187Z,2.79
2019-01-15T01:58:39.182Z,2.81
2019-01-15T01:59:39.168Z,2.82
2019-01-15T02:00:39.155Z,2.79
2019-01-15T02:01:39.168Z,2.79
2019-01-15T02:02:39.134Z,2.78
2019-01-15T02:03:39.122Z,2.78
2019-01-15T02:04:39.126Z,2.82
2019-01-15T02:05:39.102Z,2.84
2019-01-15T02:06:39.111Z,2.75
2019-01-15T02:07:39.081Z,2.76
2019-01-15T02:08:39.069Z,2.79
2019-01-15T02:09:39.086Z,2.76
2019-01-15T02:10:39.049Z,2.75
2019-01-15T02:11:39.098Z,2.75
2019-01-15T02:12:39.029Z,2.65
2019-01-15T02:13:39.024Z,2.68
2019-01-15T02:14:39.004Z,2.61
2019-01-15T02:15:38.993Z,2.65
2019-01-15T02:16:39.002Z,2.65
2019-01-15T02:17:38.970Z,2.63
2019-01-15T02:18:38.960Z,2.65
2019-01-15T02:19:38.946Z,2.58
2019-01-15T02:20:38.941Z,2.51
2019-01-15T02:21:38.944Z,2.54
2019-01-15T02:22:38.940Z,2.50
2019-01-15T02:23:38.911Z,2.50
2019-01-15T02:24:38.891Z,2.65
2019-01-15T02:25:38.882Z,2.54
2019-01-15T02:26:38.888Z,2.63
2019-01-15T02:27:38.863Z,2.57
2019-01-15T02:28:38.850Z,2.63
2019-01-15T02:29:38.839Z,2.65
2019-01-15T02:30:38.836Z,2.61
2019-01-15T02:31:38.831Z,2.63
2019-01-15T02:32:38.804Z,2.71
2019-01-15T02:33:38.792Z,2.75
2019-01-15T02:34:38.801Z,2.69
2019-01-15T02:35:38.794Z,2.73
2019-01-15T02:36:38.760Z,2.69
2019-01-15T02:37:38.767Z,2.71
2019-01-15T02:38:38.739Z,2.79
2019-01-15T02:39:38.727Z,2.84
2019-01-15T02:40:38.715Z,2.78
2019-01-15T02:41:38.705Z,2.81
2019-01-15T02:42:46.472Z,2.76
2019-01-15T02:43:38.685Z,2.76
2019-01-15T02:44:38.673Z,2.76
2019-01-15T02:45:38.660Z,2.79
2019-01-15T02:46:38.650Z,2.79
2019-01-15T02:47:38.659Z,2.81
2019-01-15T02:48:38.626Z,2.87
2019-01-15T02:49:38.616Z,2.87
2019-01-15T02:50:38.605Z,2.84
2019-01-15T02:51:38.593Z,2.84
2019-01-15T02:52:38.605Z,2.75
2019-01-15T02:53:38.595Z,2.91
2019-01-15T02:54:38.559Z,2.89
2019-01-15T02:55:38.552Z,2.91
2019-01-15T02:56:38.537Z,2.89
2019-01-15T02:57:38.549Z,2.97
2019-01-15T02:58:38.522Z,2.93
2019-01-15T02:59:38.505Z,2.87
2019-01-15T03:00:38.496Z,2.87
2019-01-15T03:01:38.483Z,2.84
2019-01-15T03:02:38.490Z,2.82
2019-01-15T03:03:38.465Z,2.89
2019-01-15T03:04:38.461Z,2.87
2019-01-15T03:05:38.438Z,2.93
2019-01-15T03:06:38.430Z,2.91
2019-01-15T03:07:38.456Z,2.90
2019-01-15T03:08:38.418Z,2.89
2019-01-15T03:09:38.398Z,2.90
2019-01-15T03:10:38.386Z,2.86
2019-01-15T03:11:38.380Z,2.86
2019-01-15T03:12:38.362Z,2.94
2019-01-15T03:13:38.369Z,2.90
2019-01-15T03:14:38.341Z,2.86
2019-01-15T03:15:38.347Z,2.93
2019-01-15T03:16:38.334Z,2.90
2019-01-15T03:17:38.308Z,2.93
2019-01-15T03:18:38.357Z,2.84
2019-01-15T03:19:38.300Z,2.89
2019-01-15T03:20:38.299Z,2.93
2019-01-15T03:21:38.293Z,2.97
2019-01-15T03:22:38.254Z,2.91
2019-01-15T03:23:38.266Z,3.02
2019-01-15T03:24:38.229Z,3.00
2019-01-15T03:25:38.218Z,3.04
2019-01-15T03:26:38.209Z,2.91
2019-01-15T03:27:38.206Z,3.07
2019-01-15T03:28:38.204Z,2.91
2019-01-15T03:29:38.190Z,2.99
2019-01-15T03:30:38.181Z,3.05
2019-01-15T03:31:38.190Z,3.08
2019-01-15T03:32:38.148Z,3.04
2019-01-15T03:33:38.149Z,3.04
2019-01-15T03:34:38.133Z,3.04
2019-01-15T03:35:38.114Z,3.11
2019-01-15T03:36:38.116Z,3.17
2019-01-15T03:37:38.087Z,3.15
2019-01-15T03:38:38.204Z,3.15
2019-01-15T03:39:38.064Z,3.05
2019-01-15T03:40:38.054Z,3.08
2019-01-15T03:41:38.043Z,3.08
2019-01-15T03:42:38.030Z,3.02
2019-01-15T03:43:38.021Z,3.00
2019-01-15T03:44:38.035Z,3.09
2019-01-15T03:45:37.997Z,3.09
2019-01-15T03:46:37.988Z,3.12
2019-01-15T03:47:37.978Z,3.14
2019-01-15T03:48:37.964Z,3.12
2019-01-15T03:49:37.974Z,3.15
2019-01-15T03:50:37.942Z,3.08
2019-01-15T03:51:37.935Z,3.12
2019-01-15T03:52:37.923Z,3.04
2019-01-15T03:53:37.911Z,3.11
2019-01-15T03:54:38.096Z,3.05
2019-01-15T03:55:37.889Z,3.15
2019-01-15T03:56:37.879Z,3.09
2019-01-15T03:57:37.866Z,3.08
2019-01-15T03:58:37.858Z,3.15
2019-01-15T03:59:37.845Z,3.04
2019-01-15T04:00:37.850Z,3.00
2019-01-15T04:01:37.826Z,3.05
2019-01-15T04:02:37.817Z,3.05
2019-01-15T04:03:37.808Z,3.09
2019-01-15T04:04:37.803Z,3.12
2019-01-15T04:05:37.799Z,3.15
2019-01-15T04:06:37.769Z,3.15
2019-01-15T04:07:37.756Z,3.15
2019-01-15T04:08:37.747Z,3.15
2019-01-15T04:09:37.734Z,3.08
2019-01-15T04:10:37.753Z,3.12
2019-01-15T04:11:37.711Z,3.12
2019-01-15T04:12:37.700Z,3.08
2019-01-15T04:13:37.692Z,3.09
2019-01-15T04:14:37.678Z,3.09
2019-01-15T04:15:37.718Z,3.15
2019-01-15T04:16:37.659Z,3.17
2019-01-15T04:17:37.644Z,3.14
2019-01-15T04:18:37.655Z,3.22
2019-01-15T04:19:37.630Z,3.12
2019-01-15T04:20:37.616Z,3.25
2019-01-15T04:21:37.626Z,3.12
2019-01-15T04:22:37.590Z,3.20
2019-01-15T04:23:37.578Z,3.17
2019-01-15T04:24:37.568Z,3.18
2019-01-15T04:25:37.572Z,3.22
2019-01-15T04:26:37.565Z,3.14
2019-01-15T04:27:37.534Z,3.20
2019-01-15T04:28:37.526Z,3.26
2019-01-15T04:29:37.515Z,3.17
2019-01-15T04:30:37.505Z,3.20
2019-01-15T04:31:37.510Z,3.23
2019-01-15T04:32:37.480Z,3.26
2019-01-15T04:33:37.472Z,3.32
2019-01-15T04:34:37.458Z,3.29
2019-01-15T04:35:37.448Z,3.32
2019-01-15T04:36:37.853Z,3.29
2019-01-15T04:37:37.445Z,3.36
2019-01-15T04:38:37.413Z,3.36
2019-01-15T04:39:37.407Z,3.26
2019-01-15T04:40:37.393Z,3.35
2019-01-15T04:41:37.383Z,3.46
2019-01-15T04:42:37.388Z,3.42
2019-01-15T04:43:37.360Z,3.48
2019-01-15T04:44:37.348Z,3.51
2019-01-15T04:45:37.336Z,3.52
2019-01-15T04:46:37.326Z,3.49
2019-01-15T04:47:37.334Z,3.51
2019-01-15T04:48:37.306Z,3.54
2019-01-15T04:49:37.294Z,3.54
2019-01-15T04:50:37.280Z,3.51
2019-01-15T04:51:37.272Z,3.60
2019-01-15T04:52:37.279Z,3.56
2019-01-15T04:53:37.253Z,3.51
2019-01-15T04:54:37.237Z,3.54
2019-01-15T04:55:37.246Z,3.64
2019-01-15T04:56:37.220Z,3.54
2019-01-15T04:57:37.224Z,3.56
2019-01-15T04:58:37.197Z,3.54
2019-01-15T04:59:37.181Z,3.63
2019-01-15T05:00:37.174Z,3.63
2019-01-15T05:01:37.160Z,3.63
2019-01-15T05:02:37.172Z,3.59
2019-01-15T05:03:37.138Z,3.62
2019-01-15T05:04:37.128Z,3.59
2019-01-15T05:05:37.117Z,3.59
2019-01-15T05:06:37.111Z,3.67
2019-01-15T05:07:37.116Z,3.59
2019-01-15T05:08:37.083Z,3.64
2019-01-15T05:09:37.072Z,3.70
2019-01-15T05:10:37.062Z,3.66
2019-01-15T05:11:37.050Z,3.72
2019-01-15T05:12:37.273Z,3.60
2019-01-15T05:13:37.029Z,3.69
2019-01-15T05:14:37.015Z,3.64
2019-01-15T05:15:37.005Z,3.70
2019-01-15T05:16:36.994Z,3.60
2019-01-15T05:17:36.984Z,3.72
2019-01-15T05:18:36.992Z,3.64
2019-01-15T05:19:36.960Z,3.64
2019-01-15T05:20:37.000Z,3.70
2019-01-15T05:21:36.942Z,3.69
2019-01-15T05:22:36.930Z,3.70
2019-01-15T05:23:36.956Z,3.73
2019-01-15T05:24:36.909Z,3.69
2019-01-15T05:25:36.894Z,3.70
2019-01-15T05:26:36.884Z,3.70
2019-01-15T05:27:36.874Z,3.67
2019-01-15T05:28:36.884Z,3.67
2019-01-15T05:29:36.853Z,3.76
2019-01-15T05:30:36.847Z,3.73
2019-01-15T05:31:36.836Z,3.78
2019-01-15T05:32:36.836Z,3.78
2019-01-15T05:33:36.826Z,3.84
2019-01-15T05:34:36.803Z,3.81
2019-01-15T05:35:36.790Z,3.85
2019-01-15T05:36:36.777Z,3.82
2019-01-15T05:37:36.762Z,3.85
2019-01-15T05:38:45.202Z,3.84
2019-01-15T05:39:36.743Z,3.82
2019-01-15T05:40:45.328Z,3.91
2019-01-15T05:41:36.720Z,3.91
2019-01-15T05:42:36.707Z,3.84
2019-01-15T05:43:36.699Z,3.85
2019-01-15T05:44:36.704Z,3.88
2019-01-15T05:45:36.695Z,3.88
2019-01-15T05:46:36.666Z,3.92
2019-01-15T05:47:36.652Z,3.91
2019-01-15T05:48:36.641Z,3.96
2019-01-15T05:49:36.657Z,3.94
2019-01-15T05:50:36.628Z,3.96
2019-01-15T05:51:36.609Z,3.91
2019-01-15T05:52:36.600Z,3.92
2019-01-15T05:53:36.591Z,3.91
2019-01-15T05:54:36.596Z,3.87
2019-01-15T05:55:36.571Z,3.91
2019-01-15T05:56:36.553Z,3.99
2019-01-15T05:57:36.542Z,4.03
2019-01-15T05:58:36.533Z,4.00
2019-01-15T05:59:45.004Z,4.03
2019-01-15T06:00:54.581Z,3.99
2019-01-15T06:01:36.866Z,3.94
2019-01-15T06:02:36.551Z,3.92
2019-01-15T06:03:36.477Z,3.96
2019-01-15T06:04:36.466Z,4.05
2019-01-15T06:05:36.499Z,3.99
2019-01-15T06:06:36.442Z,4.02
2019-01-15T06:07:36.432Z,4.00
2019-01-15T06:08:36.425Z,4.06
2019-01-15T06:09:36.412Z,3.99
2019-01-15T06:10:36.421Z,3.96
2019-01-15T06:11:36.387Z,4.02
2019-01-15T06:12:36.386Z,3.99
2019-01-15T06:13:42.618Z,4.00
2019-01-15T06:14:36.357Z,3.92
2019-01-15T06:15:36.361Z,4.02
2019-01-15T06:16:37.549Z,3.99
2019-01-15T06:17:36.322Z,3.98
2019-01-15T06:18:36.313Z,4.00
2019-01-15T06:19:36.302Z,4.02
2019-01-15T06:20:36.335Z,4.00
2019-01-15T06:21:36.277Z,3.98
2019-01-15T06:22:36.274Z,3.99
2019-01-15T06:24:31.493Z,4.05
2019-01-15T06:25:31.482Z,3.99
2019-01-15T06:26:31.527Z,4.05
2019-01-15T06:27:31.456Z,4.00
2019-01-15T06:28:31.450Z,4.06
2019-01-15T06:29:31.499Z,4.02
2019-01-15T06:30:31.428Z,4.03
2019-01-15T06:31:31.438Z,4.03
2019-01-15T06:32:31.401Z,4.06
2019-01-15T06:33:40.078Z,4.00
2019-01-15T06:34:31.825Z,3.98
2019-01-15T06:35:32.167Z,4.00
2019-01-15T06:36:31.377Z,4.03
2019-01-15T06:37:31.348Z,4.10
2019-01-15T06:38:31.345Z,4.05
2019-01-15T06:39:31.326Z,4.12
2019-01-15T06:40:31.313Z,4.12
2019-01-15T06:41:39.711Z,4.02
2019-01-15T06:42:31.295Z,4.06
2019-01-15T06:43:31.283Z,4.10
2019-01-15T06:44:31.269Z,4.17
2019-01-15T06:45:31.263Z,4.17
2019-01-15T06:46:31.310Z,4.12
2019-01-15T06:47:39.663Z,4.10
2019-01-15T06:48:31.228Z,4.12
2019-01-15T06:49:31.217Z,4.17
2019-01-15T06:50:31.202Z,4.17
2019-01-15T06:51:31.191Z,4.13
2019-01-15T06:52:31.210Z,4.10
2019-01-15T06:53:31.172Z,4.17
2019-01-15T06:54:31.168Z,4.10
2019-01-15T06:55:31.148Z,4.10
2019-01-15T06:56:31.144Z,4.12
2019-01-15T06:57:31.146Z,4.08
2019-01-15T06:58:31.115Z,4.13
2019-01-15T06:59:31.112Z,4.13
2019-01-15T07:00:31.096Z,4.06
2019-01-15T07:01:31.118Z,4.08
2019-01-15T07:02:31.095Z,4.05
2019-01-15T07:03:31.059Z,4.05
2019-01-15T07:04:31.049Z,4.17
2019-01-15T07:05:31.040Z,4.16
2019-01-15T07:06:31.026Z,4.13
2019-01-15T07:07:31.040Z,4.12
2019-01-15T07:08:31.010Z,4.05
2019-01-15T07:09:30.996Z,4.06
2019-01-15T07:10:30.983Z,4.17
2019-01-15T07:11:30.971Z,4.17
2019-01-15T07:12:30.989Z,4.21
2019-01-15T07:13:30.969Z,4.16
2019-01-15T07:14:30.937Z,4.21
2019-01-15T07:15:30.927Z,4.16
2019-01-15T07:16:30.919Z,4.18
2019-01-15T07:17:30.953Z,4.27
2019-01-15T07:18:30.896Z,4.13
2019-01-15T07:19:30.884Z,4.26
2019-01-15T07:20:30.877Z,4.31
2019-01-15T07:21:30.866Z,4.30
2019-01-15T07:22:30.851Z,4.27
2019-01-15T07:23:30.858Z,4.27
2019-01-15T07:24:30.879Z,4.27
2019-01-15T07:25:30.819Z,4.27
2019-01-15T07:26:30.805Z,4.31
2019-01-15T07:27:30.796Z,4.34
2019-01-15T07:28:30.805Z,4.34
2019-01-15T07:29:30.773Z,4.38
2019-01-15T07:30:30.763Z,4.34
2019-01-15T07:31:30.750Z,4.30
2019-01-15T07:32:30.739Z,4.31
2019-01-15T07:33:30.748Z,4.35
2019-01-15T07:34:30.719Z,4.31
2019-01-15T07:35:30.708Z,4.31
2019-01-15T07:36:30.696Z,4.28
2019-01-15T07:37:30.683Z,4.31
2019-01-15T07:38:30.692Z,4.31
2019-01-15T07:39:30.663Z,4.34
2019-01-15T07:40:30.654Z,4.28
2019-01-15T07:41:30.645Z,4.38
2019-01-15T07:42:30.634Z,4.38
2019-01-15T07:43:30.640Z,4.34
2019-01-15T07:44:30.607Z,4.42
2019-01-15T07:45:30.595Z,4.39
2019-01-15T07:46:30.589Z,4.43
2019-01-15T07:47:30.574Z,4.30
2019-01-15T07:48:30.581Z,4.34
2019-01-15T07:49:30.552Z,4.38
2019-01-15T07:50:30.540Z,4.43
2019-01-15T07:51:30.534Z,4.34
2019-01-15T07:52:30.523Z,4.36
2019-01-15T07:53:30.536Z,4.45
2019-01-15T07:54:30.497Z,4.48
2019-01-15T07:55:30.487Z,4.46
2019-01-15T07:56:30.479Z,4.45
2019-01-15T07:57:30.467Z,4.53
2019-01-15T07:58:30.456Z,4.46
2019-01-15T07:59:30.461Z,4.51
2019-01-15T08:00:30.434Z,4.49
2019-01-15T08:01:30.426Z,4.56
2019-01-15T08:02:30.409Z,4.60
2019-01-15T08:03:30.400Z,4.61
2019-01-15T08:04:30.406Z,4.61
2019-01-15T08:05:30.377Z,4.64
2019-01-15T08:06:30.364Z,4.63
2019-01-15T08:07:30.355Z,4.67
2019-01-15T08:08:30.342Z,4.69
2019-01-15T08:09:30.356Z,4.72
2019-01-15T08:10:30.322Z,4.71
2019-01-15T08:11:30.315Z,4.67
2019-01-15T08:12:30.299Z,4.75
2019-01-15T08:13:30.289Z,4.72
2019-01-15T08:14:30.300Z,4.71
2019-01-15T08:15:30.266Z,4.74
2019-01-15T08:16:30.259Z,4.79
2019-01-15T08:17:30.245Z,4.77
2019-01-15T08:18:30.233Z,4.78
2019-01-15T08:19:30.243Z,4.78
2019-01-15T08:20:30.213Z,4.79
2019-01-15T08:21:30.204Z,4.86
2019-01-15T08:22:30.198Z,4.83
2019-01-15T08:23:30.178Z,4.82
2019-01-15T08:24:30.186Z,4.98
2019-01-15T08:25:30.157Z,4.93
2019-01-15T08:26:30.146Z,5.00
2019-01-15T08:27:30.141Z,4.85
2019-01-15T08:28:30.127Z,4.96
2019-01-15T08:29:30.141Z,4.96
2019-01-15T08:30:30.107Z,4.86
2019-01-15T08:31:30.090Z,4.98
2019-01-15T08:32:30.081Z,5.06
2019-01-15T08:33:30.069Z,4.91
2019-01-15T08:34:30.057Z,5.04
2019-01-15T08:35:30.067Z,5.03
2019-01-15T08:36:30.038Z,4.98
2019-01-15T08:37:30.026Z,5.06
2019-01-15T08:38:30.014Z,5.07
2019-01-15T08:39:30.005Z,5.07
2019-01-15T08:40:30.012Z,5.09
2019-01-15T08:41:29.980Z,5.11
2019-01-15T08:42:29.970Z,5.16
2019-01-15T08:43:29.959Z,5.16
2019-01-15T08:44:29.947Z,5.14
2019-01-15T08:45:29.957Z,5.16
2019-01-15T08:46:29.931Z,5.07
2019-01-15T08:47:29.915Z,5.18
2019-01-15T08:48:29.905Z,5.30
2019-01-15T08:49:29.897Z,5.30
2019-01-15T08:50:29.900Z,5.27
2019-01-15T08:51:29.871Z,5.29
2019-01-15T08:52:29.861Z,5.25
2019-01-15T08:53:29.849Z,5.22
2019-01-15T08:54:29.839Z,5.25
2019-01-15T08:55:29.848Z,5.29
2019-01-15T08:56:29.822Z,5.30
2019-01-15T08:57:29.805Z,5.40
2019-01-15T08:58:29.795Z,5.40
2019-01-15T08:59:29.783Z,5.44
2019-01-15T09:00:29.791Z,5.33
2019-01-15T09:01:29.765Z,5.44
2019-01-15T09:02:29.752Z,5.40
2019-01-15T09:03:29.744Z,5.48
2019-01-15T09:04:29.728Z,5.50
2019-01-15T09:05:29.752Z,5.41
2019-01-15T09:06:29.707Z,5.43
2019-01-15T09:07:29.696Z,5.44
2019-01-15T09:08:29.688Z,5.55
2019-01-15T09:09:29.710Z,5.58
2019-01-15T09:10:29.664Z,5.52
2019-01-15T09:11:30.597Z,5.57
2019-01-15T09:12:29.642Z,5.50
2019-01-15T09:13:29.634Z,5.50
2019-01-15T09:14:29.623Z,5.65
2019-01-15T09:15:29.609Z,5.58
2019-01-15T09:16:29.616Z,5.61
2019-01-15T09:17:29.589Z,5.65
2019-01-15T09:18:37.914Z,5.62
2019-01-15T09:19:29.568Z,5.72
2019-01-15T09:20:29.558Z,5.75
2019-01-15T09:21:29.568Z,5.73
2019-01-15T09:22:29.534Z,5.70
2019-01-15T09:23:29.526Z,5.75
2019-01-15T09:24:29.510Z,5.72
2019-01-15T09:25:29.547Z,5.72
2019-01-15T09:26:29.508Z,5.80
2019-01-15T09:27:29.478Z,5.84
2019-01-15T09:28:29.467Z,5.84
2019-01-15T09:29:29.457Z,5.82
2019-01-15T09:30:29.446Z,5.84
2019-01-15T09:31:29.456Z,5.84
2019-01-15T09:32:29.424Z,5.82
2019-01-15T09:33:29.416Z,5.93
2019-01-15T09:34:29.401Z,5.88
2019-01-15T09:35:29.391Z,5.93
2019-01-15T09:36:29.408Z,5.93
2019-01-15T09:37:29.367Z,5.97
2019-01-15T09:38:29.358Z,6.00
2019-01-15T09:39:29.347Z,6.08
2019-01-15T09:40:29.366Z,6.06
2019-01-15T09:41:29.324Z,6.05
2019-01-15T09:42:29.332Z,6.05
2019-01-15T09:43:29.304Z,6.11
2019-01-15T09:44:34.125Z,6.06
2019-01-15T09:45:29.284Z,6.13
2019-01-15T09:46:29.273Z,6.11
2019-01-15T09:47:29.277Z,6.11
2019-01-15T09:48:29.246Z,6.09
2019-01-15T09:49:29.245Z,6.19
2019-01-15T09:50:29.227Z,6.12
2019-01-15T09:51:29.214Z,6.18
2019-01-15T09:52:29.224Z,6.09
2019-01-15T09:53:29.193Z,6.19
2019-01-15T09:54:29.182Z,6.15
2019-01-15T09:55:29.178Z,6.09
2019-01-15T09:56:29.159Z,6.12
2019-01-15T09:57:29.166Z,6.15
2019-01-15T09:58:29.137Z,6.21
2019-01-15T09:59:29.128Z,6.13
2019-01-15T10:00:29.115Z,6.09
2019-01-15T10:01:29.108Z,6.19
2019-01-15T10:02:29.145Z,6.19
2019-01-15T10:03:37.299Z,6.16
2019-01-15T10:04:29.071Z,6.25
2019-01-15T10:05:29.062Z,6.19
2019-01-15T10:06:29.053Z,6.18
2019-01-15T10:07:29.038Z,6.27
2019-01-15T10:08:29.046Z,6.32
2019-01-15T10:09:29.025Z,6.31
2019-01-15T10:10:29.006Z,6.28
2019-01-15T10:11:28.995Z,6.30
2019-01-15T10:12:28.984Z,6.37
2019-01-15T10:13:28.992Z,6.32
2019-01-15T10:14:28.967Z,6.28
2019-01-15T10:16:21.322Z,6.45
2019-01-15T10:17:29.695Z,6.32
2019-01-15T10:18:21.317Z,6.47
2019-01-15T10:19:21.283Z,6.47
2019-01-15T10:20:21.320Z,6.45
2019-01-15T10:21:21.261Z,6.38
2019-01-15T10:22:21.247Z,6.45
2019-01-15T10:23:29.627Z,6.40
2019-01-15T10:24:29.954Z,6.38
2019-01-15T10:25:21.218Z,6.50
2019-01-15T10:26:21.207Z,6.45
2019-01-15T10:27:21.230Z,6.45
2019-01-15T10:28:21.205Z,6.47
2019-01-15T10:29:21.173Z,6.49
2019-01-15T10:30:21.159Z,6.32
2019-01-15T10:31:21.147Z,6.45
2019-01-15T10:32:21.139Z,6.46
2019-01-15T10:33:21.146Z,6.46
2019-01-15T10:34:21.125Z,6.49
2019-01-15T10:35:21.104Z,6.47
2019-01-15T10:36:21.092Z,6.52
2019-01-15T10:37:21.081Z,6.53
2019-01-15T10:38:21.097Z,6.55
2019-01-15T10:39:21.064Z,6.50
2019-01-15T10:40:21.050Z,6.46
2019-01-15T10:41:21.037Z,6.50
2019-01-15T10:42:21.025Z,6.60
2019-01-15T10:43:21.019Z,6.57
2019-01-15T10:44:21.023Z,6.55
2019-01-15T10:45:20.993Z,6.61
2019-01-15T10:46:21.451Z,6.53
2019-01-15T10:47:20.978Z,6.65
2019-01-15T10:48:20.960Z,6.65
2019-01-15T10:49:20.967Z,6.67
2019-01-15T10:50:20.936Z,6.55
2019-01-15T10:51:20.932Z,6.71
2019-01-15T10:52:29.155Z,6.65
2019-01-15T10:53:20.906Z,6.67
2019-01-15T10:54:20.910Z,6.75
2019-01-15T10:55:20.882Z,6.68
2019-01-15T10:56:20.873Z,6.68
2019-01-15T10:57:20.861Z,6.73
2019-01-15T10:58:20.848Z,6.75
2019-01-15T10:59:20.857Z,6.70
2019-01-15T11:00:20.826Z,6.79
2019-01-15T11:01:20.814Z,6.74
2019-01-15T11:02:20.806Z,6.74
2019-01-15T11:03:20.797Z,6.79
2019-01-15T11:04:20.801Z,6.85
2019-01-15T11:05:20.775Z,6.83
2019-01-15T11:06:20.760Z,6.83
2019-01-15T11:07:20.751Z,6.88
2019-01-15T11:08:20.736Z,6.79
2019-01-15T11:09:20.753Z,6.85
2019-01-15T11:10:20.715Z,6.82
2019-01-15T11:11:20.703Z,6.83
2019-01-15T11:12:20.693Z,6.89
2019-01-15T11:13:20.681Z,6.96
2019-01-15T11:14:20.677Z,6.92
2019-01-15T11:15:20.685Z,6.88
2019-01-15T11:16:20.652Z,6.96
2019-01-15T11:17:20.639Z,6.91
2019-01-15T11:18:20.626Z,6.91
2019-01-15T11:19:20.615Z,6.92
2019-01-15T11:20:20.621Z,6.92
2019-01-15T11:21:20.593Z,6.99
2019-01-15T11:22:20.584Z,6.99
2019-01-15T11:23:20.572Z,7.00
2019-01-15T11:24:20.559Z,7.06
2019-01-15T11:25:20.579Z,6.99
2019-01-15T11:26:20.540Z,7.07
2019-01-15T11:27:20.525Z,7.06
2019-01-15T11:28:20.514Z,7.07
2019-01-15T11:29:20.509Z,7.15
2019-01-15T11:30:20.512Z,7.06
2019-01-15T11:31:20.485Z,7.08
2019-01-15T11:32:20.471Z,7.11
2019-01-15T11:33:20.462Z,7.15
2019-01-15T11:34:20.447Z,7.21
2019-01-15T11:35:20.455Z,7.22
2019-01-15T11:36:20.427Z,7.18
2019-01-15T11:37:21.869Z,7.22
2019-01-15T11:38:20.403Z,7.33
2019-01-15T11:39:20.393Z,7.33
2019-01-15T11:40:20.399Z,7.34
2019-01-15T11:41:20.372Z,7.29
2019-01-15T11:42:20.359Z,7.31
2019-01-15T11:43:20.348Z,7.39
2019-01-15T11:44:20.335Z,7.34
2019-01-15T11:45:20.480Z,7.31
2019-01-15T11:46:20.313Z,7.36
2019-01-15T11:47:20.303Z,7.42
2019-01-15T11:48:20.297Z,7.42
2019-01-15T11:49:20.282Z,7.58
2019-01-15T11:50:20.270Z,7.58
2019-01-15T11:51:20.277Z,7.69
2019-01-15T11:52:20.247Z,7.74
2019-01-15T11:53:20.236Z,7.86
2019-01-15T11:54:20.228Z,7.84
2019-01-15T11:55:21.296Z,7.92
2019-01-15T11:56:20.241Z,7.95
2019-01-15T11:57:20.190Z,7.87
2019-01-15T11:58:20.180Z,7.84
2019-01-15T11:59:20.173Z,7.87
2019-01-15T12:00:20.160Z,7.91
2019-01-15T12:01:20.174Z,7.86
2019-01-15T12:02:22.269Z,7.83
2019-01-15T12:03:20.126Z,7.92
2019-01-15T12:04:20.115Z,7.96
2019-01-15T12:05:20.347Z,7.92
2019-01-15T12:06:20.113Z,7.96
2019-01-15T12:07:20.082Z,7.95
2019-01-15T12:08:20.069Z,7.95
2019-01-15T12:09:20.058Z,7.95
2019-01-15T12:10:20.050Z,7.98
2019-01-15T12:11:20.058Z,7.99
2019-01-15T12:12:20.025Z,8.02
2019-01-15T12:13:20.014Z,8.09
2019-01-15T12:14:20.031Z,8.04
2019-01-15T12:15:19.995Z,8.09
2019-01-15T12:16:20.120Z,8.05
2019-01-15T12:17:19.994Z,8.02
2019-01-15T12:18:19.958Z,8.09
2019-01-15T12:19:19.949Z,8.14
2019-01-15T12:20:19.934Z,8.12
2019-01-15T12:21:19.947Z,8.09
2019-01-15T12:22:20.008Z,8.01
2019-01-15T12:23:19.909Z,7.92
2019-01-15T12:24:19.893Z,7.96
2019-01-15T12:25:19.879Z,7.96
2019-01-15T12:26:20.173Z,7.96
2019-01-15T12:27:19.857Z,7.96
2019-01-15T12:28:19.890Z,7.94
2019-01-15T12:29:19.835Z,7.91
2019-01-15T12:30:19.824Z,7.92
2019-01-15T12:31:19.830Z,7.80
2019-01-15T12:32:19.802Z,7.87
2019-01-15T12:33:19.797Z,7.86
2019-01-15T12:34:20.616Z,7.92
2019-01-15T12:35:19.770Z,7.87
2019-01-15T12:36:19.803Z,7.87
2019-01-15T12:37:19.747Z,7.76
2019-01-15T12:38:19.735Z,7.84
2019-01-15T12:39:19.728Z,7.84
2019-01-15T12:40:19.715Z,7.86
2019-01-15T12:41:19.703Z,7.76
2019-01-15T12:42:19.714Z,7.78
2019-01-15T12:43:19.749Z,7.83
2019-01-15T12:44:19.667Z,7.77
2019-01-15T12:45:19.660Z,7.71
2019-01-15T12:46:19.647Z,7.83
2019-01-15T12:47:19.654Z,7.81
2019-01-15T12:48:19.628Z,7.76
2019-01-15T12:49:19.612Z,7.69
2019-01-15T12:50:19.604Z,7.76
2019-01-15T12:51:19.591Z,7.74
2019-01-15T12:52:19.604Z,7.69
2019-01-15T12:53:19.566Z,7.76
2019-01-15T12:54:27.893Z,7.71
2019-01-15T12:55:19.548Z,7.66
2019-01-15T12:56:19.549Z,7.71
2019-01-15T12:57:19.543Z,7.74
2019-01-15T12:58:19.512Z,7.76
2019-01-15T12:59:19.515Z,7.81
2019-01-15T13:00:19.492Z,7.74
2019-01-15T13:01:19.478Z,7.73
2019-01-15T13:02:27.936Z,7.74
2019-01-15T13:03:19.456Z,7.76
2019-01-15T13:04:19.446Z,7.61
2019-01-15T13:05:19.437Z,7.73
2019-01-15T13:06:19.424Z,7.80
2019-01-15T13:07:19.429Z,7.80
2019-01-15T13:08:19.401Z,7.64
2019-01-15T13:09:19.393Z,7.73
2019-01-15T13:10:19.377Z,7.73
2019-01-15T13:11:19.367Z,7.66
2019-01-15T13:12:19.376Z,7.68
2019-01-15T13:13:19.345Z,7.69
2019-01-15T13:14:19.335Z,7.73
2019-01-15T13:15:24.508Z,7.71
2019-01-15T13:16:19.314Z,7.69
2019-01-15T13:17:19.349Z,7.76
2019-01-15T13:18:19.290Z,7.66
2019-01-15T13:19:19.280Z,7.57
2019-01-15T13:20:19.266Z,7.52